Time;durP1;ratioP1;P1;durP2;ratioP2;P2;SDS_P1;SDS_P2;PMS_P1;PMS_P2;Temp;Humidity;BMP_temperature;BMP_pressure;BME280_temperature;BME280_humidity;BME280_pressure;Samples;Min_cycle;Max_cycle;Signal;HPM_P1;HPM_P2
2022/10/23 00:00:59;;;;;;;1.05;0.20;;;23.00;62.00;;;;;;5047147;28;20037;-51
2022/10/23 00:03:27;;;;;;;3.20;0.65;;;23.10;61.80;;;;;;5047543;28;20049;-55
2022/10/23 00:05:54;;;;;;;0.45;0.10;;;23.20;61.60;;;;;;5050903;28;20048;-51
2022/10/23 00:08:22;;;;;;;1.95;0.30;;;23.30;61.40;;;;;;5050758;28;20073;-53
2022/10/23 00:10:49;;;;;;;0.20;0.10;;;23.30;61.30;;;;;;5050639;28;20041;-54
2022/10/23 00:13:16;;;;;;;0.30;0.20;;;23.40;61.10;;;;;;5050159;28;20055;-50
2022/10/23 00:15:43;;;;;;;0.63;0.10;;;23.40;61.00;;;;;;5050715;28;20121;-51
2022/10/23 00:18:10;;;;;;;0.73;0.28;;;23.50;60.90;;;;;;5050673;28;20076;-54
2022/10/23 00:20:37;;;;;;;1.52;0.30;;;23.60;60.80;;;;;;5050658;28;20041;-54
2022/10/23 00:23:04;;;;;;;1.75;0.43;;;23.60;60.70;;;;;;5050246;28;20064;-51
2022/10/23 00:25:33;;;;;;;0.40;0.20;;;23.70;61.10;;;;;;5050396;28;20067;-52
2022/10/23 00:28:00;;;;;;;0.80;0.30;;;23.70;60.40;;;;;;5050188;28;20046;-55
2022/10/23 00:30:27;;;;;;;0.63;0.10;;;23.70;60.30;;;;;;5050510;28;20049;-52
2022/10/23 00:32:54;;;;;;;0.13;0.10;;;23.80;60.20;;;;;;5050521;28;20045;-52
2022/10/23 00:35:21;;;;;;;0.20;0.10;;;23.80;60.10;;;;;;5050346;28;20040;-55
2022/10/23 00:37:48;;;;;;;0.82;0.10;;;23.80;60.00;;;;;;5048829;28;20056;-52
2022/10/23 00:40:15;;;;;;;0.40;0.40;;;23.90;59.90;;;;;;5050208;28;20047;-49
2022/10/23 00:42:43;;;;;;;2.80;0.20;;;23.90;59.70;;;;;;5049902;28;20056;-53
2022/10/23 00:45:21;;;;;;;0.40;0.10;;;24.00;59.70;;;;;;5048700;28;20045;-49
2022/10/23 00:47:48;;;;;;;0.17;0.10;;;24.00;59.50;;;;;;5050180;28;20098;-53
2022/10/23 00:50:16;;;;;;;0.25;0.10;;;24.00;59.50;;;;;;5048775;28;20533;-53
2022/10/23 00:52:48;;;;;;;0.35;0.35;;;24.10;59.40;;;;;;5050286;28;20048;-52
2022/10/23 00:55:16;;;;;;;1.40;0.10;;;24.10;59.30;;;;;;5049771;28;20156;-51
2022/10/23 00:57:46;;;;;;;1.15;0.20;;;24.10;59.20;;;;;;5048088;28;20057;-53
2022/10/23 01:00:17;;;;;;;0.30;0.20;;;24.10;59.20;;;;;;5049428;28;20037;-51
2022/10/23 01:02:44;;;;;;;0.50;0.03;;;24.10;59.10;;;;;;5049841;28;20068;-49
2022/10/23 01:05:11;;;;;;;0.95;0.10;;;24.10;59.00;;;;;;5081873;28;20116;-52
2022/10/23 01:07:47;;;;;;;0.57;0.45;;;24.20;58.90;;;;;;5082029;28;20582;-52
2022/10/23 01:10:17;;;;;;;0.52;0.10;;;24.20;58.90;;;;;;5045903;28;20438;-54
2022/10/23 01:12:51;;;;;;;0.43;0.10;;;24.20;58.80;;;;;;5048177;28;20044;-51
2022/10/23 01:15:26;;;;;;;2.92;0.10;;;24.20;58.70;;;;;;5048321;28;20039;-54
2022/10/23 01:18:01;;;;;;;2.72;1.13;;;24.30;58.70;;;;;;5048217;28;20049;-56
2022/10/23 01:20:40;;;;;;;0.10;0.05;;;24.30;58.70;;;;;;5048315;28;20045;-56
2022/10/23 01:23:19;;;;;;;1.02;0.10;;;24.30;58.60;;;;;;5048155;28;20049;-54
2022/10/23 01:25:58;;;;;;;1.65;0.10;;;24.30;58.60;;;;;;5047266;28;20493;-53
2022/10/23 01:28:30;;;;;;;0.20;0.10;;;24.30;58.60;;;;;;5049852;28;20045;-50
2022/10/23 01:30:59;;;;;;;0.70;0.28;;;24.30;58.50;;;;;;5047983;28;20510;-55
2022/10/23 01:33:36;;;;;;;0.73;0.10;;;24.30;58.50;;;;;;5047615;28;20110;-54
2022/10/23 01:36:05;;;;;;;0.73;0.10;;;24.30;58.40;;;;;;5049164;28;20040;-54
2022/10/23 01:38:39;;;;;;;0.00;0.00;;;24.30;58.30;;;;;;5081410;28;20132;-56
2022/10/23 01:41:19;;;;;;;1.83;0.10;;;24.40;58.30;;;;;;5047397;28;20041;-55
2022/10/23 01:43:52;;;;;;;0.20;0.10;;;24.30;58.20;;;;;;5047629;28;20132;-52
2022/10/23 01:46:21;;;;;;;1.48;0.10;;;24.40;58.20;;;;;;5047396;28;20056;-50
2022/10/23 01:48:52;;;;;;;0.20;0.20;;;24.40;58.20;;;;;;5047439;28;20520;-53
2022/10/23 01:51:22;;;;;;;0.73;0.10;;;24.40;58.10;;;;;;5047483;28;20048;-54
2022/10/23 01:53:52;;;;;;;2.60;0.30;;;24.40;58.10;;;;;;5048609;28;20045;-54
2022/10/23 01:56:25;;;;;;;1.33;0.10;;;24.40;58.70;;;;;;5047169;28;20047;-54
2022/10/23 01:58:56;;;;;;;0.40;0.10;;;24.40;58.00;;;;;;5047279;28;20052;-55
2022/10/23 02:01:27;;;;;;;0.30;0.10;;;24.40;57.90;;;;;;5047339;28;20037;-54
2022/10/23 02:03:56;;;;;;;0.10;0.03;;;24.40;57.90;;;;;;5047428;28;20049;-53
2022/10/23 02:06:25;;;;;;;0.50;0.10;;;24.40;57.80;;;;;;5047266;28;20048;-54
2022/10/23 02:08:52;;;;;;;0.70;0.10;;;24.40;57.80;;;;;;5046964;28;20083;-55
2022/10/23 02:11:21;;;;;;;1.38;0.10;;;24.40;57.80;;;;;;5047133;28;20537;-55
2022/10/23 02:13:55;;;;;;;0.40;0.10;;;24.50;57.70;;;;;;5048713;28;20451;-55
2022/10/23 02:16:28;;;;;;;0.20;0.20;;;24.50;57.60;;;;;;5047228;28;20053;-54
2022/10/23 02:19:04;;;;;;;0.63;0.00;;;24.40;57.60;;;;;;5047284;28;20049;-55
2022/10/23 02:21:39;;;;;;;0.30;0.10;;;24.50;57.60;;;;;;5048216;28;20048;-53
2022/10/23 02:24:11;;;;;;;0.15;0.15;;;24.50;57.50;;;;;;5046462;28;20037;-51
2022/10/23 02:26:51;;;;;;;0.28;0.10;;;24.50;57.50;;;;;;5047565;28;20043;-51
2022/10/23 02:29:26;;;;;;;0.40;0.10;;;24.40;57.40;;;;;;5048626;28;20041;-58
2022/10/23 02:31:55;;;;;;;0.55;0.10;;;24.50;57.40;;;;;;5080299;28;20479;-54
2022/10/23 02:34:22;;;;;;;1.73;0.40;;;24.50;57.40;;;;;;5048385;28;20083;-54
2022/10/23 02:36:50;;;;;;;0.22;0.20;;;24.50;57.30;;;;;;5046664;28;20521;-53
2022/10/23 02:39:22;;;;;;;0.98;0.10;;;24.50;57.20;;;;;;5046818;28;20425;-53
2022/10/23 02:41:55;;;;;;;0.20;0.10;;;24.50;57.30;;;;;;5030215;28;20094;-51
2022/10/23 02:44:37;;;;;;;0.20;0.10;;;24.50;57.20;;;;;;5046495;28;20060;-54
2022/10/23 02:47:14;;;;;;;0.10;0.08;;;24.50;57.10;;;;;;5046588;28;20088;-52
2022/10/23 02:49:49;;;;;;;0.30;0.20;;;24.50;57.20;;;;;;5048301;28;20502;-53
2022/10/23 02:52:23;;;;;;;0.32;0.10;;;24.50;57.20;;;;;;5046210;28;20065;-53
2022/10/23 02:55:08;;;;;;;0.85;0.10;;;24.50;57.10;;;;;;5046404;28;20077;-49
2022/10/23 02:57:52;;;;;;;0.10;0.00;;;24.50;57.10;;;;;;5046414;28;20076;-53
2022/10/23 03:00:22;;;;;;;0.20;0.10;;;24.50;57.10;;;;;;5046279;28;20048;-49
2022/10/23 03:02:56;;;;;;;0.15;0.10;;;24.50;57.10;;;;;;5047635;28;20537;-54
2022/10/23 03:05:28;;;;;;;1.40;0.00;;;24.50;57.00;;;;;;5030069;28;20091;-53
2022/10/23 03:07:55;;;;;;;0.60;0.05;;;24.50;57.00;;;;;;5046222;28;20124;-52
2022/10/23 03:10:22;;;;;;;3.05;1.13;;;24.50;56.90;;;;;;5046491;28;20052;-53
2022/10/23 03:12:50;;;;;;;0.13;0.10;;;24.50;56.90;;;;;;5047439;28;20045;-53
2022/10/23 03:15:19;;;;;;;0.38;0.10;;;24.50;56.90;;;;;;5046470;28;20052;-53
2022/10/23 03:17:49;;;;;;;0.10;0.10;;;24.50;56.90;;;;;;5046354;28;20065;-54
2022/10/23 03:20:16;;;;;;;0.98;0.10;;;24.50;56.80;;;;;;5044390;28;20045;-52
2022/10/23 03:22:44;;;;;;;1.13;0.03;;;24.50;56.80;;;;;;5047166;28;20072;-52
2022/10/23 03:25:11;;;;;;;1.70;0.50;;;24.40;56.70;;;;;;5046121;28;20088;-55
2022/10/23 03:27:38;;;;;;;0.90;0.75;;;24.50;56.80;;;;;;5045826;28;20477;-55
2022/10/23 03:30:10;;;;;;;0.68;0.10;;;24.50;56.80;;;;;;5046261;28;20115;-52
2022/10/23 03:32:40;;;;;;;0.75;0.10;;;24.50;56.70;;;;;;5046341;28;20040;-51
2022/10/23 03:35:08;;;;;;;2.05;0.10;;;24.50;56.70;;;;;;5047094;28;20515;-54
2022/10/23 03:37:35;;;;;;;3.42;0.28;;;24.50;56.70;;;;;;5047413;28;20056;-54
2022/10/23 03:40:02;;;;;;;0.25;0.00;;;24.50;56.70;;;;;;5049193;28;20045;-53
2022/10/23 03:42:33;;;;;;;0.30;0.08;;;24.40;56.70;;;;;;5049763;28;20048;-54
2022/10/23 03:45:00;;;;;;;0.10;0.10;;;24.50;56.70;;;;;;5049977;28;20073;-54
2022/10/23 03:47:29;;;;;;;0.30;0.10;;;24.50;56.70;;;;;;5050044;28;20401;-54
2022/10/23 03:49:59;;;;;;;1.92;0.17;;;24.50;56.70;;;;;;5051061;28;20077;-54
2022/10/23 03:52:26;;;;;;;0.60;0.10;;;24.40;56.60;;;;;;5049744;28;20513;-55
2022/10/23 03:54:53;;;;;;;0.25;0.15;;;24.40;56.70;;;;;;5051128;28;20053;-53
2022/10/23 03:57:20;;;;;;;0.35;0.00;;;24.40;56.70;;;;;;5049657;28;20563;-54
2022/10/23 03:59:47;;;;;;;2.22;0.10;;;24.40;56.70;;;;;;5050846;28;20577;-54
2022/10/23 04:02:14;;;;;;;0.10;0.10;;;24.50;56.70;;;;;;5050695;28;20128;-54
2022/10/23 04:04:41;;;;;;;0.10;0.10;;;24.40;56.70;;;;;;5050623;28;20601;-55
2022/10/23 04:07:09;;;;;;;0.32;0.00;;;24.40;56.70;;;;;;5049620;28;20142;-55
2022/10/23 04:09:36;;;;;;;0.68;0.10;;;24.40;56.70;;;;;;5050769;28;20122;-54
2022/10/23 04:12:04;;;;;;;1.95;0.47;;;24.40;56.70;;;;;;5049179;28;20132;-55
2022/10/23 04:14:31;;;;;;;0.13;0.13;;;24.40;56.60;;;;;;5049437;28;20045;-55
2022/10/23 04:16:58;;;;;;;2.38;0.10;;;24.40;56.60;;;;;;5050737;28;20131;-54
2022/10/23 04:19:27;;;;;;;0.40;0.10;;;24.40;56.60;;;;;;5048922;28;20273;-55
2022/10/23 04:21:56;;;;;;;0.65;0.10;;;24.40;56.50;;;;;;5049203;28;20055;-54
2022/10/23 04:24:26;;;;;;;0.20;0.10;;;24.40;56.50;;;;;;5049008;28;20048;-55
2022/10/23 04:26:53;;;;;;;2.85;0.10;;;24.40;56.50;;;;;;5048941;28;20102;-55
2022/10/23 04:29:23;;;;;;;0.63;0.00;;;24.40;56.50;;;;;;5049131;28;20120;-52
2022/10/23 04:31:51;;;;;;;0.35;0.10;;;24.40;56.40;;;;;;5050246;28;20041;-54
2022/10/23 04:34:18;;;;;;;1.00;0.10;;;24.40;56.40;;;;;;5048466;28;20041;-54
2022/10/23 04:36:45;;;;;;;4.38;0.20;;;24.40;56.40;;;;;;5050389;28;20098;-56
2022/10/23 04:39:13;;;;;;;0.10;0.10;;;24.40;56.40;;;;;;5049337;28;20480;-55
2022/10/23 04:41:41;;;;;;;0.98;0.22;;;24.40;56.40;;;;;;5048666;28;20045;-53
2022/10/23 04:44:08;;;;;;;0.10;0.10;;;24.40;56.40;;;;;;5048748;28;20054;-55
2022/10/23 04:46:39;;;;;;;1.63;0.10;;;24.40;56.40;;;;;;5048628;28;20037;-51
2022/10/23 04:49:06;;;;;;;0.52;0.05;;;24.40;56.30;;;;;;5047620;28;20535;-54
2022/10/23 04:51:56;;;;;;;0.95;0.10;;;24.40;56.40;;;;;;5007687;28;20128;-55
2022/10/23 04:54:52;;;;;;;0.10;0.08;;;24.40;56.40;;;;;;4989438;28;20101;-52
2022/10/23 04:57:42;;;;;;;0.10;0.03;;;24.40;56.40;;;;;;4985208;28;20059;-57
2022/10/23 05:00:13;;;;;;;2.10;0.35;;;24.30;56.50;;;;;;4986171;28;20085;-56
2022/10/23 05:02:48;;;;;;;5.05;0.03;;;24.40;56.70;;;;;;4987056;28;20058;-55
2022/10/23 05:05:17;;;;;;;4.55;0.17;;;24.40;56.90;;;;;;4998549;28;20111;-57
2022/10/23 05:07:57;;;;;;;1.20;0.17;;;24.40;57.00;;;;;;4997103;28;20762;-57
2022/10/23 05:10:30;;;;;;;1.85;0.10;;;24.40;57.10;;;;;;4995751;28;20436;-56
2022/10/23 05:13:12;;;;;;;1.65;0.10;;;24.40;57.10;;;;;;4997261;28;20061;-57
2022/10/23 05:15:40;;;;;;;0.30;0.10;;;24.40;57.70;;;;;;4995853;28;20100;-54
2022/10/23 05:18:12;;;;;;;1.65;0.10;;;24.40;57.20;;;;;;4988225;28;20511;-57
2022/10/23 05:20:40;;;;;;;1.30;0.10;;;24.40;57.20;;;;;;4995096;28;20046;-58
2022/10/23 05:23:13;;;;;;;0.60;0.10;;;24.40;57.20;;;;;;4991179;28;20058;-54
2022/10/23 05:25:43;;;;;;;1.02;0.10;;;24.40;57.40;;;;;;4997703;28;20057;-63
2022/10/23 05:28:18;;;;;;;2.97;0.10;;;24.40;58.10;;;;;;5010892;28;20056;-63
2022/10/23 05:30:46;;;;;;;1.05;0.10;;;24.40;57.60;;;;;;5047281;28;20045;-62
2022/10/23 05:33:14;;;;;;;3.22;0.10;;;24.40;57.60;;;;;;5055273;28;20041;-56
2022/10/23 05:35:44;;;;;;;0.82;0.15;;;24.50;57.80;;;;;;5037637;28;20072;-61
2022/10/23 05:38:14;;;;;;;1.95;0.10;;;24.50;57.90;;;;;;5058062;28;20065;-62
2022/10/23 05:40:41;;;;;;;0.10;0.10;;;24.60;57.90;;;;;;5058957;28;20056;-62
2022/10/23 05:43:13;;;;;;;5.57;0.10;;;24.60;57.80;;;;;;5059005;28;20048;-61
2022/10/23 05:45:49;;;;;;;4.03;0.45;;;24.70;57.70;;;;;;5052956;28;20098;-61
2022/10/23 05:48:42;;;;;;;2.47;0.10;;;24.70;57.60;;;;;;4992856;28;20097;-58
2022/10/23 05:51:36;;;;;;;2.90;0.10;;;24.70;57.50;;;;;;4998901;28;20046;-58
2022/10/23 05:54:22;;;;;;;0.88;0.38;;;24.80;58.00;;;;;;4995624;28;20574;-57
2022/10/23 05:57:20;;;;;;;4.72;0.10;;;24.90;57.30;;;;;;4989903;28;20042;-54
2022/10/23 05:59:50;;;;;;;3.38;0.77;;;24.90;57.60;;;;;;4987499;28;20054;-55
2022/10/23 06:02:27;;;;;;;10.30;0.30;;;24.90;58.30;;;;;;5004421;28;20054;-57
2022/10/23 06:05:05;;;;;;;7.53;0.40;;;25.00;58.70;;;;;;4989088;28;20058;-56
2022/10/23 06:08:10;;;;;;;1.23;0.47;;;25.00;58.90;;;;;;5003283;28;20049;-56
2022/10/23 06:10:37;;;;;;;3.10;0.30;;;25.00;59.00;;;;;;5005268;28;20058;-57
2022/10/23 06:13:07;;;;;;;2.75;0.20;;;25.10;59.00;;;;;;4989540;28;20756;-55
2022/10/23 06:15:34;;;;;;;3.10;0.30;;;25.10;59.00;;;;;;5005624;28;20120;-52
2022/10/23 06:18:07;;;;;;;10.73;0.40;;;25.20;58.90;;;;;;4989731;28;20054;-52
2022/10/23 06:20:39;;;;;;;3.20;0.20;;;25.20;58.80;;;;;;4989621;28;20152;-54
2022/10/23 06:23:14;;;;;;;4.15;0.20;;;25.20;58.80;;;;;;4973048;28;20128;-55
2022/10/23 06:26:00;;;;;;;4.23;0.20;;;25.20;58.60;;;;;;5027318;28;20131;-53
2022/10/23 06:28:36;;;;;;;4.32;0.20;;;25.20;58.50;;;;;;5046909;28;20287;-52
2022/10/23 06:31:05;;;;;;;2.97;0.32;;;25.20;58.30;;;;;;5030237;28;20051;-55
2022/10/23 06:33:33;;;;;;;0.88;0.10;;;25.30;58.10;;;;;;5046680;28;20055;-55
2022/10/23 06:36:04;;;;;;;1.83;0.10;;;25.30;57.90;;;;;;5046411;28;20041;-54
2022/10/23 06:38:35;;;;;;;1.05;0.10;;;25.30;57.80;;;;;;5046602;28;20041;-54
2022/10/23 06:41:05;;;;;;;2.80;0.65;;;25.30;57.70;;;;;;5046454;28;20041;-52
2022/10/23 06:43:38;;;;;;;0.80;0.10;;;25.30;57.50;;;;;;5045858;28;20386;-54
2022/10/23 06:46:16;;;;;;;1.95;1.10;;;25.30;58.00;;;;;;5046326;28;20077;-54
2022/10/23 06:49:05;;;;;;;6.93;0.95;;;25.30;57.30;;;;;;4985479;28;20058;-53
2022/10/23 06:51:38;;;;;;;4.40;0.68;;;25.30;57.30;;;;;;5001986;28;20050;-53
2022/10/23 06:54:11;;;;;;;3.83;0.80;;;25.30;57.20;;;;;;5001944;28;20093;-52
2022/10/23 06:57:00;;;;;;;4.82;0.60;;;25.30;57.00;;;;;;4967817;28;20050;-53
2022/10/23 06:59:41;;;;;;;1.42;0.30;;;25.30;57.70;;;;;;4961961;28;20058;-52
2022/10/23 07:02:10;;;;;;;4.97;1.25;;;25.20;56.90;;;;;;4950320;28;20050;-53
2022/10/23 07:04:40;;;;;;;2.35;0.93;;;25.20;56.80;;;;;;4950356;28;20054;-57
2022/10/23 07:07:13;;;;;;;2.60;0.77;;;25.20;56.90;;;;;;4977887;28;20154;-55
2022/10/23 07:09:46;;;;;;;3.30;0.50;;;25.20;56.80;;;;;;5001164;28;20096;-54
2022/10/23 07:12:46;;;;;;;2.35;0.70;;;25.20;56.80;;;;;;4999427;28;20054;-54
2022/10/23 07:15:36;;;;;;;1.95;0.40;;;25.20;56.80;;;;;;4992845;28;20089;-53
2022/10/23 07:18:05;;;;;;;1.77;0.30;;;25.20;56.80;;;;;;4992801;28;20046;-53
2022/10/23 07:20:58;;;;;;;2.05;0.40;;;25.20;56.80;;;;;;4992775;28;20057;-53
2022/10/23 07:23:26;;;;;;;3.40;0.90;;;25.20;56.80;;;;;;4968319;28;20491;-53
2022/10/23 07:25:53;;;;;;;1.70;1.10;;;25.20;56.70;;;;;;4991876;28;20513;-52
2022/10/23 07:28:23;;;;;;;3.88;1.50;;;25.10;56.60;;;;;;5063262;28;20041;-51
2022/10/23 07:30:56;;;;;;;1.95;0.80;;;25.10;56.50;;;;;;5031492;28;20528;-54
2022/10/23 07:33:24;;;;;;;1.88;0.57;;;25.10;56.50;;;;;;5030191;28;20042;-56
2022/10/23 07:36:04;;;;;;;6.10;0.60;;;25.10;56.50;;;;;;5013641;28;20045;-52
2022/10/23 07:38:32;;;;;;;0.35;0.35;;;25.10;56.50;;;;;;5041349;28;20068;-53
2022/10/23 07:41:00;;;;;;;1.60;0.20;;;25.10;56.50;;;;;;5049852;28;20045;-54
2022/10/23 07:43:27;;;;;;;3.13;0.50;;;25.10;56.50;;;;;;5049562;28;20497;-53
2022/10/23 07:45:54;;;;;;;2.67;0.98;;;25.10;56.40;;;;;;5051023;28;20505;-52
2022/10/23 07:48:26;;;;;;;3.63;0.38;;;25.10;56.30;;;;;;5049443;28;20041;-55
2022/10/23 07:51:00;;;;;;;3.72;0.95;;;25.10;56.30;;;;;;5050855;28;20129;-55
2022/10/23 07:53:29;;;;;;;1.60;0.57;;;25.10;56.30;;;;;;5049318;28;20091;-56
2022/10/23 07:56:09;;;;;;;;;;;25.10;56.20;;;;;;5049454;28;20844;-55
2022/10/23 07:58:56;;;;;;;3.55;0.25;;;25.00;56.20;;;;;;5050614;28;19927;-56
2022/10/23 08:01:28;;;;;;;0.82;0.30;;;25.00;56.40;;;;;;5049151;28;20044;-51
2022/10/23 08:03:56;;;;;;;0.98;0.20;;;25.00;56.30;;;;;;5049463;28;20112;-54
2022/10/23 08:06:23;;;;;;;1.70;0.30;;;25.00;56.20;;;;;;5049662;28;20387;-50
2022/10/23 08:08:52;;;;;;;1.55;0.40;;;25.00;56.20;;;;;;5049109;28;20505;-52
2022/10/23 08:11:26;;;;;;;1.17;0.20;;;25.10;56.10;;;;;;5050177;28;20045;-52
2022/10/23 08:13:54;;;;;;;0.45;0.20;;;25.00;56.10;;;;;;5048929;28;20051;-52
2022/10/23 08:16:23;;;;;;;4.18;0.40;;;25.00;56.00;;;;;;5049027;28;20735;-53
2022/10/23 08:19:10;;;;;;;1.67;0.60;;;25.00;56.00;;;;;;5050681;28;20048;-51
2022/10/23 08:21:40;;;;;;;1.23;0.20;;;25.00;55.90;;;;;;5048777;28;20520;-55
2022/10/23 08:24:12;;;;;;;1.45;0.20;;;25.00;55.90;;;;;;5047775;28;20090;-55
2022/10/23 08:26:39;;;;;;;4.75;0.85;;;25.00;55.80;;;;;;5049511;28;20402;-54
2022/10/23 08:29:06;;;;;;;1.52;0.30;;;25.00;55.80;;;;;;5048856;28;20532;-57
2022/10/23 08:31:33;;;;;;;3.70;0.30;;;25.00;55.70;;;;;;5048626;28;20074;-54
2022/10/23 08:34:21;;;;;;;0.65;0.20;;;25.00;55.80;;;;;;5049737;28;20061;-54
2022/10/23 08:36:50;;;;;;;0.52;0.28;;;25.00;55.70;;;;;;5048633;28;20582;-54
2022/10/23 08:39:19;;;;;;;1.52;0.20;;;25.00;55.60;;;;;;5049976;28;20044;-55
2022/10/23 08:42:20;;;;;;;2.08;0.25;;;25.00;55.60;;;;;;5048388;28;20037;-60
2022/10/23 08:44:55;;;;;;;1.45;0.40;;;25.10;55.60;;;;;;5048533;28;20063;-55
2022/10/23 08:47:27;;;;;;;1.67;0.22;;;25.10;55.60;;;;;;5048756;28;20049;-51
2022/10/23 08:50:26;;;;;;;1.05;0.20;;;25.10;55.50;;;;;;5049627;28;20508;-49
2022/10/23 08:52:59;;;;;;;2.80;0.10;;;25.00;55.50;;;;;;5049589;28;20045;-52
2022/10/23 08:55:33;;;;;;;0.47;0.20;;;25.00;55.50;;;;;;5048877;28;20098;-53
2022/10/23 08:58:05;;;;;;;2.20;0.30;;;25.00;55.50;;;;;;5049613;28;20041;-53
2022/10/23 09:00:32;;;;;;;0.52;0.20;;;25.10;55.40;;;;;;5049762;28;20095;-53
2022/10/23 09:03:02;;;;;;;3.42;0.57;;;25.00;55.40;;;;;;5049725;28;20041;-55
2022/10/23 09:05:34;;;;;;;0.40;0.17;;;25.10;55.30;;;;;;5049303;28;20048;-55
2022/10/23 09:08:15;;;;;;;1.33;0.30;;;25.10;55.30;;;;;;5048403;28;20072;-51
2022/10/23 09:10:56;;;;;;;2.50;0.43;;;25.10;55.30;;;;;;5048862;28;20041;-50
2022/10/23 09:13:44;;;;;;;1.23;0.38;;;25.10;55.10;;;;;;5049271;28;20044;-54
2022/10/23 09:16:18;;;;;;;0.55;0.20;;;25.10;55.10;;;;;;5045520;28;20025;-54
2022/10/23 09:18:47;;;;;;;5.25;0.32;;;25.10;55.10;;;;;;5049289;28;20126;-54
2022/10/23 09:21:15;;;;;;;0.32;0.15;;;25.10;55.00;;;;;;5049244;28;20056;-52
2022/10/23 09:23:42;;;;;;;2.65;0.40;;;25.10;54.90;;;;;;5048870;28;20069;-54
2022/10/23 09:26:15;;;;;;;2.00;0.17;;;25.10;54.90;;;;;;5048889;28;20053;-55
2022/10/23 09:28:46;;;;;;;1.33;0.10;;;25.10;54.70;;;;;;5049200;28;20076;-54
2022/10/23 09:31:14;;;;;;;0.30;0.10;;;25.10;54.80;;;;;;5049218;28;20043;-55
2022/10/23 09:33:41;;;;;;;2.92;0.50;;;25.10;54.70;;;;;;5049122;28;20040;-55
2022/10/23 09:36:19;;;;;;;0.63;0.35;;;25.10;54.70;;;;;;5048136;28;20091;-53
2022/10/23 09:38:49;;;;;;;0.77;0.20;;;25.10;54.60;;;;;;5048441;28;20072;-54
2022/10/23 09:41:20;;;;;;;1.85;0.45;;;25.10;54.70;;;;;;5048044;28;20039;-54
2022/10/23 09:43:47;;;;;;;2.05;0.25;;;25.20;54.70;;;;;;5048695;28;20041;-55
2022/10/23 09:46:19;;;;;;;0.98;0.47;;;25.20;54.60;;;;;;5047298;28;20751;-54
2022/10/23 09:48:57;;;;;;;3.63;0.20;;;25.20;54.60;;;;;;5048723;28;20037;-54
2022/10/23 09:51:24;;;;;;;1.75;0.30;;;25.20;54.60;;;;;;5048698;28;20413;-55
2022/10/23 09:53:53;;;;;;;2.17;0.30;;;25.20;54.60;;;;;;5048095;28;20036;-53
2022/10/23 09:56:31;;;;;;;0.68;0.10;;;25.20;54.50;;;;;;5048217;28;20048;-54
2022/10/23 09:59:00;;;;;;;0.82;0.75;;;25.20;54.50;;;;;;5048563;28;20143;-53
2022/10/23 10:01:31;;;;;;;0.73;0.10;;;25.20;54.60;;;;;;5047104;28;20075;-52
2022/10/23 10:04:15;;;;;;;3.72;0.45;;;25.30;54.60;;;;;;5046988;28;20453;-53
2022/10/23 10:06:43;;;;;;;1.45;0.25;;;25.30;54.60;;;;;;5046654;28;20049;-53
2022/10/23 10:09:13;;;;;;;0.82;0.32;;;25.30;54.50;;;;;;5048180;28;20521;-54
2022/10/23 10:11:46;;;;;;;3.55;0.22;;;25.30;54.50;;;;;;5047883;28;20128;-54
2022/10/23 10:14:43;;;;;;;0.43;0.38;;;25.30;54.50;;;;;;5048235;28;20048;-54
2022/10/23 10:17:19;;;;;;;0.98;0.38;;;25.30;54.40;;;;;;5048313;28;20103;-49
2022/10/23 10:20:12;;;;;;;1.75;1.00;;;25.30;54.40;;;;;;5048025;28;20462;-55
2022/10/23 10:22:47;;;;;;;1.20;0.43;;;25.30;54.40;;;;;;5047737;28;20045;-54
2022/10/23 10:25:19;;;;;;;1.48;0.10;;;25.30;54.40;;;;;;5047725;28;20456;-54
2022/10/23 10:27:56;;;;;;;1.75;0.82;;;25.40;54.40;;;;;;5048079;28;20146;-52
2022/10/23 10:30:25;;;;;;;3.78;0.30;;;25.40;54.30;;;;;;5048023;28;20045;-52
2022/10/23 10:32:57;;;;;;;3.72;0.57;;;25.40;54.20;;;;;;5047888;28;20524;-51
2022/10/23 10:35:40;;;;;;;1.50;0.20;;;25.40;54.10;;;;;;5048089;28;20069;-54
2022/10/23 10:38:23;;;;;;;3.38;0.45;;;25.50;54.10;;;;;;5047689;28;20055;-53
2022/10/23 10:41:09;;;;;;;1.80;0.30;;;25.50;54.00;;;;;;5047520;28;20124;-54
2022/10/23 10:43:46;;;;;;;1.60;0.20;;;25.50;53.90;;;;;;5047961;28;20039;-53
2022/10/23 10:46:21;;;;;;;2.45;0.40;;;25.50;53.90;;;;;;5047890;28;20048;-54
2022/10/23 10:48:55;;;;;;;0.20;0.20;;;25.50;53.70;;;;;;5047429;28;20051;-55
2022/10/23 10:51:44;;;;;;;1.40;0.25;;;25.50;53.70;;;;;;5047316;28;20074;-53
2022/10/23 10:54:21;;;;;;;4.13;0.30;;;25.60;53.80;;;;;;5047518;28;20123;-54
2022/10/23 10:56:49;;;;;;;0.43;0.20;;;25.60;53.80;;;;;;5047498;28;20045;-54
2022/10/23 10:59:23;;;;;;;2.15;0.17;;;25.60;53.80;;;;;;5047913;28;20520;-55
2022/10/23 11:01:56;;;;;;;1.50;0.57;;;25.60;53.80;;;;;;5047670;28;20123;-54
2022/10/23 11:04:33;;;;;;;1.05;0.10;;;25.70;53.90;;;;;;5047965;28;20045;-56
2022/10/23 11:07:06;;;;;;;2.92;0.40;;;25.70;53.80;;;;;;5046345;28;20182;-56
2022/10/23 11:09:34;;;;;;;1.70;0.35;;;25.70;53.80;;;;;;5046025;28;20504;-56
2022/10/23 11:12:01;;;;;;;1.58;0.20;;;25.70;53.80;;;;;;5047432;28;20045;-51
2022/10/23 11:14:31;;;;;;;1.15;0.30;;;25.80;53.80;;;;;;5047701;28;20601;-54
2022/10/23 11:17:04;;;;;;;0.43;0.10;;;25.80;53.70;;;;;;5047639;28;20114;-55
2022/10/23 11:19:36;;;;;;;2.38;0.20;;;25.80;53.70;;;;;;5047216;28;20037;-55
2022/10/23 11:22:10;;;;;;;0.20;0.10;;;25.80;53.50;;;;;;5047644;28;20049;-55
2022/10/23 11:25:04;;;;;;;1.98;0.15;;;25.90;53.70;;;;;;5046179;28;20049;-55
2022/10/23 11:27:46;;;;;;;2.25;0.35;;;25.90;53.40;;;;;;5047261;28;20037;-55
2022/10/23 11:30:21;;;;;;;1.17;0.20;;;25.90;53.40;;;;;;5047428;28;20037;-53
2022/10/23 11:33:24;;;;;;;0.73;0.20;;;25.90;53.40;;;;;;5047164;28;20123;-54
2022/10/23 11:36:04;;;;;;;1.67;0.20;;;25.90;53.30;;;;;;5047100;28;20037;-53
2022/10/23 11:38:34;;;;;;;2.30;0.15;;;25.90;53.30;;;;;;5047372;28;20059;-54
2022/10/23 11:41:04;;;;;;;0.95;0.13;;;25.90;53.20;;;;;;5045928;28;20072;-54
2022/10/23 11:43:34;;;;;;;1.17;0.30;;;26.00;53.30;;;;;;5045223;28;20056;-53
2022/10/23 11:46:13;;;;;;;1.67;0.10;;;26.00;53.40;;;;;;5045853;28;20049;-53
2022/10/23 11:48:42;;;;;;;0.45;0.13;;;26.00;53.40;;;;;;5047050;28;20045;-54
2022/10/23 11:51:28;;;;;;;0.68;0.30;;;26.00;53.50;;;;;;5047410;28;20041;-52
2022/10/23 11:54:23;;;;;;;1.98;0.10;;;26.10;53.50;;;;;;5047142;28;20055;-53
2022/10/23 11:57:09;;;;;;;0.65;0.52;;;26.10;53.50;;;;;;5047180;28;20133;-55
2022/10/23 11:59:49;;;;;;;0.82;0.10;;;26.10;53.40;;;;;;5047944;28;20041;-54
2022/10/23 12:02:26;;;;;;;0.30;0.10;;;26.10;53.30;;;;;;5050843;28;20076;-56
2022/10/23 12:04:55;;;;;;;3.05;0.30;;;26.20;53.30;;;;;;5049378;28;20063;-54
2022/10/23 12:07:26;;;;;;;0.40;0.20;;;26.20;53.20;;;;;;5050904;28;20045;-54
2022/10/23 12:09:56;;;;;;;3.53;0.10;;;26.20;53.10;;;;;;5051033;28;20070;-56
2022/10/23 12:12:32;;;;;;;1.10;0.10;;;26.20;53.00;;;;;;5050595;28;20044;-53
2022/10/23 12:15:21;;;;;;;0.20;0.10;;;26.20;52.90;;;;;;5049204;28;20053;-53
2022/10/23 12:17:52;;;;;;;0.63;0.10;;;26.20;52.70;;;;;;5050686;28;20397;-55
2022/10/23 12:20:38;;;;;;;0.40;0.10;;;26.20;52.70;;;;;;5049487;28;20045;-54
2022/10/23 12:23:23;;;;;;;6.07;0.13;;;26.30;52.70;;;;;;5050687;28;20040;-54
2022/10/23 12:26:05;;;;;;;0.65;0.10;;;26.30;52.70;;;;;;5050397;28;20051;-55
2022/10/23 12:28:39;;;;;;;0.88;0.15;;;26.30;52.70;;;;;;5050567;28;20413;-55
2022/10/23 12:31:21;;;;;;;1.10;0.10;;;26.30;52.90;;;;;;5050602;28;20056;-53
2022/10/23 12:33:59;;;;;;;1.38;0.10;;;26.30;52.80;;;;;;5049884;28;20121;-54
2022/10/23 12:36:44;;;;;;;1.15;0.43;;;26.40;52.90;;;;;;5050291;28;20045;-54
2022/10/23 12:39:28;;;;;;;0.10;0.10;;;26.40;53.10;;;;;;5050023;28;20047;-54
2022/10/23 12:41:56;;;;;;;0.32;0.13;;;26.40;53.20;;;;;;5050070;28;20043;-55
2022/10/23 12:44:25;;;;;;;0.80;0.10;;;26.40;53.30;;;;;;5050100;28;20037;-54
2022/10/23 12:46:56;;;;;;;5.10;0.10;;;26.40;53.20;;;;;;5049728;28;20045;-54
2022/10/23 12:49:26;;;;;;;0.57;0.10;;;26.50;53.30;;;;;;5050187;28;20055;-55
2022/10/23 12:51:57;;;;;;;0.68;0.10;;;26.50;53.40;;;;;;5050338;28;20144;-55
2022/10/23 12:54:26;;;;;;;1.75;0.30;;;26.50;53.30;;;;;;5048462;28;20139;-56
2022/10/23 12:56:53;;;;;;;1.02;0.10;;;26.50;53.30;;;;;;5050101;28;20037;-55
2022/10/23 12:59:25;;;;;;;0.30;0.20;;;26.50;53.20;;;;;;5050074;28;20091;-56
2022/10/23 13:01:52;;;;;;;5.57;0.20;;;26.50;53.10;;;;;;5049852;28;20135;-54
2022/10/23 13:04:27;;;;;;;1.05;0.77;;;26.50;52.90;;;;;;5046683;28;20037;-54
2022/10/23 13:06:56;;;;;;;0.40;0.13;;;26.60;52.90;;;;;;5050062;28;20071;-54
2022/10/23 13:09:27;;;;;;;1.38;0.77;;;26.50;52.60;;;;;;5048361;28;20079;-55
2022/10/23 13:12:30;;;;;;;0.32;0.10;;;26.50;52.40;;;;;;5045723;28;20045;-53
2022/10/23 13:15:00;;;;;;;1.17;0.10;;;26.50;52.30;;;;;;5049532;28;20398;-55
2022/10/23 13:17:39;;;;;;;1.45;0.20;;;26.50;52.20;;;;;;5049127;28;20045;-56
2022/10/23 13:20:20;;;;;;;0.45;0.10;;;26.60;52.10;;;;;;5049610;28;20045;-51